sensor_id;sensor_type;location;lat;lon;timestamp;pressure;altitude;pressure_sealevel;temperature;humidity
74680;BME280;63211;48.548;2.704;2024-02-26T00:02:09;98069.78;;;18.32;49.91
74680;BME280;63211;48.548;2.704;2024-02-26T00:04:36;98071.13;;;18.35;50.07
74680;BME280;63211;48.548;2.704;2024-02-26T00:07:02;98075.78;;;18.34;49.93
74680;BME280;63211;48.548;2.704;2024-02-26T00:09:29;98064.88;;;18.34;50.35
74680;BME280;63211;48.548;2.704;2024-02-26T00:11:55;98067.84;;;18.38;50.53
74680;BME280;63211;48.548;2.704;2024-02-26T00:14:23;98069.47;;;18.39;50.21
74680;BME280;63211;48.548;2.704;2024-02-26T00:16:49;98073.53;;;18.41;50.54
74680;BME280;63211;48.548;2.704;2024-02-26T00:19:17;98075.44;;;18.41;50.57
74680;BME280;63211;48.548;2.704;2024-02-26T00:21:44;98077.06;;;18.42;50.69
74680;BME280;63211;48.548;2.704;2024-02-26T00:24:10;98074.34;;;18.42;50.61
74680;BME280;63211;48.548;2.704;2024-02-26T00:26:37;98074.34;;;18.42;50.29
74680;BME280;63211;48.548;2.704;2024-02-26T00:29:04;98074.34;;;18.42;50.26
74680;BME280;63211;48.548;2.704;2024-02-26T00:31:30;98079.53;;;18.38;50.67
74680;BME280;63211;48.548;2.704;2024-02-26T00:33:57;98088.81;;;18.37;50.50
74680;BME280;63211;48.548;2.704;2024-02-26T00:36:25;98052.56;;;18.13;50.72
74680;BME280;63211;48.548;2.704;2024-02-26T00:38:51;98108.16;;;18.36;50.32
74680;BME280;63211;48.548;2.704;2024-02-26T00:41:18;98096.19;;;18.37;50.12
74680;BME280;63211;48.548;2.704;2024-02-26T00:43:45;98101.63;;;18.37;50.40
74680;BME280;63211;48.548;2.704;2024-02-26T00:46:12;98108.41;;;18.39;50.72
74680;BME280;63211;48.548;2.704;2024-02-26T00:48:39;98104.59;;;18.40;50.63
74680;BME280;63211;48.548;2.704;2024-02-26T00:51:05;98111.38;;;18.43;50.53
74680;BME280;63211;48.548;2.704;2024-02-26T00:53:34;98092.34;;;18.38;50.39
74680;BME280;63211;48.548;2.704;2024-02-26T00:56:01;98117.34;;;18.45;50.96
74680;BME280;63211;48.548;2.704;2024-02-26T00:58:27;98104.84;;;18.44;51.14
74680;BME280;63211;48.548;2.704;2024-02-26T01:00:54;98113.25;;;18.47;51.24
74680;BME280;63211;48.548;2.704;2024-02-26T01:03:20;98111.03;;;18.49;50.60
74680;BME280;63211;48.548;2.704;2024-02-26T01:05:47;98108.09;;;18.46;50.65
74680;BME280;63211;48.548;2.704;2024-02-26T01:08:14;98117.28;;;18.50;50.75
74680;BME280;63211;48.548;2.704;2024-02-26T01:10:42;98111.81;;;18.50;50.87
74680;BME280;63211;48.548;2.704;2024-02-26T01:13:08;98108.31;;;18.49;50.42
74680;BME280;63211;48.548;2.704;2024-02-26T01:15:35;98103.50;;;18.41;50.71
74680;BME280;63211;48.548;2.704;2024-02-26T01:18:01;98116.78;;;18.48;50.71
74680;BME280;63211;48.548;2.704;2024-02-26T01:20:28;98124.44;;;18.46;50.77
74680;BME280;63211;48.548;2.704;2024-02-26T01:22:55;98113.81;;;18.44;50.75
74680;BME280;63211;48.548;2.704;2024-02-26T01:25:21;98113.81;;;18.44;50.80
74680;BME280;63211;48.548;2.704;2024-02-26T01:27:49;98118.16;;;18.45;50.79
74680;BME280;63211;48.548;2.704;2024-02-26T01:30:16;98120.59;;;18.47;50.67
74680;BME280;63211;48.548;2.704;2024-02-26T01:32:42;98115.69;;;18.49;50.96
74680;BME280;63211;48.548;2.704;2024-02-26T01:35:09;98125.97;;;18.52;50.67
74680;BME280;63211;48.548;2.704;2024-02-26T01:37:37;98126.78;;;18.52;50.89
74680;BME280;63211;48.548;2.704;2024-02-26T01:40:05;98115.97;;;18.47;51.08
74680;BME280;63211;48.548;2.704;2024-02-26T01:42:32;98128.94;;;18.55;51.22
74680;BME280;63211;48.548;2.704;2024-02-26T01:45:00;98137.13;;;18.55;51.35
74680;BME280;63211;48.548;2.704;2024-02-26T01:47:27;98132.47;;;18.56;51.51
74680;BME280;63211;48.548;2.704;2024-02-26T01:49:54;98139.56;;;18.57;51.43
74680;BME280;63211;48.548;2.704;2024-02-26T01:52:21;98142.28;;;18.57;51.21
74680;BME280;63211;48.548;2.704;2024-02-26T01:54:48;98140.38;;;18.58;51.21
74680;BME280;63211;48.548;2.704;2024-02-26T01:57:16;98141.19;;;18.58;51.43
74680;BME280;63211;48.548;2.704;2024-02-26T01:59:43;98137.63;;;18.58;51.16
74680;BME280;63211;48.548;2.704;2024-02-26T02:02:11;98136.53;;;18.59;50.74
74680;BME280;63211;48.548;2.704;2024-02-26T02:04:39;98136.00;;;18.57;50.90
74680;BME280;63211;48.548;2.704;2024-02-26T02:07:06;98139.84;;;18.55;51.21
74680;BME280;63211;48.548;2.704;2024-02-26T02:09:33;98142.03;;;18.53;51.04
74680;BME280;63211;48.548;2.704;2024-02-26T02:12:00;98135.56;;;18.49;51.26
74680;BME280;63211;48.548;2.704;2024-02-26T02:14:26;98141.50;;;18.51;51.49
74680;BME280;63211;48.548;2.704;2024-02-26T02:16:53;98146.38;;;18.54;51.27
74680;BME280;63211;48.548;2.704;2024-02-26T02:19:21;98153.19;;;18.57;51.52
74680;BME280;63211;48.548;2.704;2024-02-26T02:21:49;98146.38;;;18.60;51.44
74680;BME280;63211;48.548;2.704;2024-02-26T02:24:16;98154.78;;;18.63;51.42
74680;BME280;63211;48.548;2.704;2024-02-26T02:26:42;98148.75;;;18.66;51.73
74680;BME280;63211;48.548;2.704;2024-02-26T02:29:09;98147.66;;;18.67;51.93
74680;BME280;63211;48.548;2.704;2024-02-26T02:31:36;98148.19;;;18.69;51.61
74680;BME280;63211;48.548;2.704;2024-02-26T02:34:02;98155.56;;;18.69;51.59
74680;BME280;63211;48.548;2.704;2024-02-26T02:36:29;98109.75;;;18.42;51.63
74680;BME280;63211;48.548;2.704;2024-02-26T02:38:57;98154.50;;;18.65;51.92
74680;BME280;63211;48.548;2.704;2024-02-26T02:41:24;98158.31;;;18.64;51.91
74680;BME280;63211;48.548;2.704;2024-02-26T02:43:51;98156.41;;;18.64;51.77
74680;BME280;63211;48.548;2.704;2024-02-26T02:46:19;98159.16;;;18.64;51.79
74680;BME280;63211;48.548;2.704;2024-02-26T02:48:45;98163.78;;;18.64;51.47
74680;BME280;63211;48.548;2.704;2024-02-26T02:51:12;98162.69;;;18.65;51.23
74680;BME280;63211;48.548;2.704;2024-02-26T02:53:38;98160.25;;;18.63;51.29
74680;BME280;63211;48.548;2.704;2024-02-26T02:56:07;98161.06;;;18.64;51.00
74680;BME280;63211;48.548;2.704;2024-02-26T02:58:33;98164.06;;;18.62;51.02
74680;BME280;63211;48.548;2.704;2024-02-26T03:01:00;98162.16;;;18.63;51.40
74680;BME280;63211;48.548;2.704;2024-02-26T03:03:27;98161.06;;;18.64;51.61
74680;BME280;63211;48.548;2.704;2024-02-26T03:05:54;98170.03;;;18.64;51.86
74680;BME280;63211;48.548;2.704;2024-02-26T03:08:21;98167.84;;;18.66;51.75
74680;BME280;63211;48.548;2.704;2024-02-26T03:10:47;98166.47;;;18.69;52.09
74680;BME280;63211;48.548;2.704;2024-02-26T03:13:15;98167.75;;;18.71;51.68
74680;BME280;63211;48.548;2.704;2024-02-26T03:15:42;98159.59;;;18.71;51.62
74680;BME280;63211;48.548;2.704;2024-02-26T03:18:09;98170.44;;;18.76;51.54
74680;BME280;63211;48.548;2.704;2024-02-26T03:20:35;98168.53;;;18.77;51.02
74680;BME280;63211;48.548;2.704;2024-02-26T03:23:03;98165.00;;;18.76;51.37
74680;BME280;63211;48.548;2.704;2024-02-26T03:25:29;98169.63;;;18.76;51.53
74680;BME280;63211;48.548;2.704;2024-02-26T03:27:56;98163.66;;;18.74;51.43
74680;BME280;63211;48.548;2.704;2024-02-26T03:30:24;98171.84;;;18.74;51.56
74680;BME280;63211;48.548;2.704;2024-02-26T03:32:50;98185.25;;;18.70;51.78
74680;BME280;63211;48.548;2.704;2024-02-26T03:35:17;98190.19;;;18.68;51.39
74680;BME280;63211;48.548;2.704;2024-02-26T03:37:45;98186.63;;;18.68;51.46
74680;BME280;63211;48.548;2.704;2024-02-26T03:40:13;98189.66;;;18.66;51.45
74680;BME280;63211;48.548;2.704;2024-02-26T03:42:39;98183.09;;;18.67;50.98
74680;BME280;63211;48.548;2.704;2024-02-26T03:45:07;98184.44;;;18.70;51.16
74680;BME280;63211;48.548;2.704;2024-02-26T03:47:37;98189.56;;;18.71;51.03
74680;BME280;63211;48.548;2.704;2024-02-26T03:50:05;98183.31;;;18.71;51.23
74680;BME280;63211;48.548;2.704;2024-02-26T03:52:32;98185.75;;;18.72;51.36
74680;BME280;63211;48.548;2.704;2024-02-26T03:54:59;98186.03;;;18.71;51.98
74680;BME280;63211;48.548;2.704;2024-02-26T03:57:25;98186.56;;;18.73;52.05
74680;BME280;63211;48.548;2.704;2024-02-26T03:59:52;98194.16;;;18.76;51.94
74680;BME280;63211;48.548;2.704;2024-02-26T04:02:19;98184.94;;;18.72;52.31
74680;BME280;63211;48.548;2.704;2024-02-26T04:04:47;98195.50;;;18.78;51.82
74680;BME280;63211;48.548;2.704;2024-02-26T04:07:13;98192.78;;;18.78;51.67
74680;BME280;63211;48.548;2.704;2024-02-26T04:09:40;98201.47;;;18.80;51.56
74680;BME280;63211;48.548;2.704;2024-02-26T04:12:07;98207.75;;;18.81;51.30
74680;BME280;63211;48.548;2.704;2024-02-26T04:14:34;98205.84;;;18.81;51.35
74680;BME280;63211;48.548;2.704;2024-02-26T04:17:01;98208.03;;;18.79;51.15
74680;BME280;63211;48.548;2.704;2024-02-26T04:19:28;98214.31;;;18.80;51.37
74680;BME280;63211;48.548;2.704;2024-02-26T04:21:56;98209.41;;;18.77;51.43
74680;BME280;63211;48.548;2.704;2024-02-26T04:24:23;98207.25;;;18.74;51.38
74680;BME280;63211;48.548;2.704;2024-02-26T04:26:49;98215.72;;;18.72;51.22
74680;BME280;63211;48.548;2.704;2024-02-26T04:29:16;98213.59;;;18.69;51.25
74680;BME280;63211;48.548;2.704;2024-02-26T04:31:42;98215.22;;;18.70;51.37
74680;BME280;63211;48.548;2.704;2024-02-26T04:34:11;98211.69;;;18.70;51.06
74680;BME280;63211;48.548;2.704;2024-02-26T04:36:37;98221.72;;;18.74;50.92
74680;BME280;63211;48.548;2.704;2024-02-26T04:39:05;98229.31;;;18.77;51.24
74680;BME280;63211;48.548;2.704;2024-02-26T04:41:32;98224.38;;;18.79;50.83
74680;BME280;63211;48.548;2.704;2024-02-26T04:43:59;98230.91;;;18.83;51.26
74680;BME280;63211;48.548;2.704;2024-02-26T04:46:25;98219.47;;;18.81;51.28
74680;BME280;63211;48.548;2.704;2024-02-26T04:48:53;98229.78;;;18.84;51.58
74680;BME280;63211;48.548;2.704;2024-02-26T04:51:20;98230.59;;;18.85;51.69
74680;BME280;63211;48.548;2.704;2024-02-26T04:53:46;98235.25;;;18.84;51.80
74680;BME280;63211;48.548;2.704;2024-02-26T04:56:14;98228.97;;;18.84;51.44
74680;BME280;63211;48.548;2.704;2024-02-26T04:58:41;98230.38;;;18.81;51.62
74680;BME280;63211;48.548;2.704;2024-02-26T05:01:07;98237.44;;;18.82;51.44
74680;BME280;63211;48.548;2.704;2024-02-26T05:03:35;98236.63;;;18.82;51.12
74680;BME280;63211;48.548;2.704;2024-02-26T05:06:02;98243.72;;;18.83;51.14
74680;BME280;63211;48.548;2.704;2024-02-26T05:08:28;98242.91;;;18.82;51.23
74680;BME280;63211;48.548;2.704;2024-02-26T05:10:56;98247.53;;;18.82;51.11
74680;BME280;63211;48.548;2.704;2024-02-26T05:13:24;98249.75;;;18.80;50.85
74680;BME280;63211;48.548;2.704;2024-02-26T05:15:50;98254.66;;;18.78;51.02
74680;BME280;63211;48.548;2.704;2024-02-26T05:18:17;98259.28;;;18.77;51.49
74680;BME280;63211;48.548;2.704;2024-02-26T05:20:44;98252.22;;;18.76;51.62
74680;BME280;63211;48.548;2.704;2024-02-26T05:23:10;98247.59;;;18.77;51.71
74680;BME280;63211;48.548;2.704;2024-02-26T05:25:37;98263.66;;;18.78;51.75
74680;BME280;63211;48.548;2.704;2024-02-26T05:28:04;98265.81;;;18.81;51.71
74680;BME280;63211;48.548;2.704;2024-02-26T05:30:32;98270.97;;;18.83;51.32
74680;BME280;63211;48.548;2.704;2024-02-26T05:32:58;98270.69;;;18.84;51.43
74680;BME280;63211;48.548;2.704;2024-02-26T05:35:25;98265.19;;;18.90;51.41
74680;BME280;63211;48.548;2.704;2024-02-26T05:37:52;98283.19;;;18.91;51.23
74680;BME280;63211;48.548;2.704;2024-02-26T05:40:19;98279.63;;;18.90;51.34
74680;BME280;63211;48.548;2.704;2024-02-26T05:42:45;98289.72;;;18.90;51.13
74680;BME280;63211;48.548;2.704;2024-02-26T05:45:12;98288.09;;;18.88;51.44
74680;BME280;63211;48.548;2.704;2024-02-26T05:47:40;98289.19;;;18.87;51.40
74680;BME280;63211;48.548;2.704;2024-02-26T05:50:08;98296.03;;;18.85;51.68
74680;BME280;63211;48.548;2.704;2024-02-26T05:52:36;98288.44;;;18.82;51.82
74680;BME280;63211;48.548;2.704;2024-02-26T05:55:03;98304.50;;;18.83;51.52
74680;BME280;63211;48.548;2.704;2024-02-26T05:57:30;98302.88;;;18.82;51.53
74680;BME280;63211;48.548;2.704;2024-02-26T05:59:56;98306.41;;;18.83;51.35
74680;BME280;63211;48.548;2.704;2024-02-26T06:02:26;98305.59;;;18.82;51.05
74680;BME280;63211;48.548;2.704;2024-02-26T06:04:54;98312.47;;;18.75;50.27
74680;BME280;63211;48.548;2.704;2024-02-26T06:07:20;98313.25;;;18.80;50.72
74680;BME280;63211;48.548;2.704;2024-02-26T06:09:47;98314.34;;;18.79;50.52
74680;BME280;63211;48.548;2.704;2024-02-26T06:12:14;98327.38;;;18.87;50.11
74680;BME280;63211;48.548;2.704;2024-02-26T06:14:41;98302.13;;;18.72;49.87
74680;BME280;63211;48.548;2.704;2024-02-26T06:17:08;98332.81;;;18.87;50.99
74680;BME280;63211;48.548;2.704;2024-02-26T06:19:35;98341.53;;;18.90;50.82
74680;BME280;63211;48.548;2.704;2024-02-26T06:22:03;98342.09;;;18.86;50.67
74680;BME280;63211;48.548;2.704;2024-02-26T06:24:29;98345.88;;;18.91;49.54
74680;BME280;63211;48.548;2.704;2024-02-26T06:26:56;98341.28;;;18.86;49.58
74680;BME280;63211;48.548;2.704;2024-02-26T06:29:23;98331.53;;;18.80;49.22
74680;BME280;63211;48.548;2.704;2024-02-26T06:31:49;98355.16;;;18.90;49.11
74680;BME280;63211;48.548;2.704;2024-02-26T06:34:16;98353.53;;;18.88;48.96
74680;BME280;63211;48.548;2.704;2024-02-26T06:36:42;98350.28;;;18.86;49.20
74680;BME280;63211;48.548;2.704;2024-02-26T06:39:10;98356.84;;;18.85;49.10
74680;BME280;63211;48.548;2.704;2024-02-26T06:41:38;98360.94;;;18.83;48.01
74680;BME280;63211;48.548;2.704;2024-02-26T06:44:04;98368.06;;;18.79;50.15
74680;BME280;63211;48.548;2.704;2024-02-26T06:46:31;98371.06;;;18.77;50.96
74680;BME280;63211;48.548;2.704;2024-02-26T06:48:58;98372.97;;;18.77;50.79
74680;BME280;63211;48.548;2.704;2024-02-26T06:51:24;98372.97;;;18.77;50.97
74680;BME280;63211;48.548;2.704;2024-02-26T06:53:51;98374.28;;;18.84;51.36
74680;BME280;63211;48.548;2.704;2024-02-26T06:56:19;98376.97;;;18.90;51.10
74680;BME280;63211;48.548;2.704;2024-02-26T06:58:45;98385.16;;;18.90;51.32
74680;BME280;63211;48.548;2.704;2024-02-26T07:01:12;98388.69;;;18.90;54.48
74680;BME280;63211;48.548;2.704;2024-02-26T07:03:40;98393.34;;;18.90;56.69
74680;BME280;63211;48.548;2.704;2024-02-26T07:06:06;98393.06;;;18.91;56.63
74680;BME280;63211;48.548;2.704;2024-02-26T07:08:33;98403.97;;;18.91;55.31
74680;BME280;63211;48.548;2.704;2024-02-26T07:11:00;98372.78;;;18.68;53.81
74680;BME280;63211;48.548;2.704;2024-02-26T07:13:28;98410.38;;;19.05;55.82
74680;BME280;63211;48.548;2.704;2024-02-26T07:15:55;98421.53;;;19.09;56.74
74680;BME280;63211;48.548;2.704;2024-02-26T07:18:21;98421.28;;;19.05;54.89
74680;BME280;63211;48.548;2.704;2024-02-26T07:20:48;98424.88;;;19.01;54.19
74680;BME280;63211;48.548;2.704;2024-02-26T07:23:15;98425.44;;;18.98;53.59
74680;BME280;63211;48.548;2.704;2024-02-26T07:25:41;98424.91;;;18.96;53.34
74680;BME280;63211;48.548;2.704;2024-02-26T07:28:09;98433.06;;;18.96;53.18
74680;BME280;63211;48.548;2.704;2024-02-26T07:30:37;98436.88;;;19.00;53.55
74680;BME280;63211;48.548;2.704;2024-02-26T07:33:04;98445.06;;;19.00;52.70
74680;BME280;63211;48.548;2.704;2024-02-26T07:35:31;98441.78;;;18.98;52.71
74680;BME280;63211;48.548;2.704;2024-02-26T07:37:58;98439.91;;;18.93;52.48
74680;BME280;63211;48.548;2.704;2024-02-26T07:40:25;98449.50;;;18.91;52.77
74680;BME280;63211;48.548;2.704;2024-02-26T07:42:52;98454.41;;;18.88;52.52
74680;BME280;63211;48.548;2.704;2024-02-26T07:45:18;98451.16;;;18.86;52.33
74680;BME280;63211;48.548;2.704;2024-02-26T07:47:47;98457.16;;;18.83;52.08
74680;BME280;63211;48.548;2.704;2024-02-26T07:50:14;98453.09;;;18.81;51.96
74680;BME280;63211;48.548;2.704;2024-02-26T07:52:41;98456.59;;;18.86;52.00
74680;BME280;63211;48.548;2.704;2024-02-26T07:55:07;98468.34;;;18.87;51.87
74680;BME280;63211;48.548;2.704;2024-02-26T07:57:34;98471.59;;;18.89;51.96
74680;BME280;63211;48.548;2.704;2024-02-26T08:00:01;98469.44;;;18.86;51.86
74680;BME280;63211;48.548;2.704;2024-02-26T08:02:28;98477.31;;;18.87;51.71
74680;BME280;63211;48.548;2.704;2024-02-26T08:04:56;98475.16;;;18.84;51.82
74680;BME280;63211;48.548;2.704;2024-02-26T08:07:22;98484.72;;;18.82;51.78
74680;BME280;63211;48.548;2.704;2024-02-26T08:09:49;98439.31;;;18.52;51.34
74680;BME280;63211;48.548;2.704;2024-02-26T08:12:15;98484.75;;;18.77;51.48
74680;BME280;63211;48.548;2.704;2024-02-26T08:14:42;98490.19;;;18.77;51.67
74680;BME280;63211;48.548;2.704;2024-02-26T08:17:09;98499.19;;;18.77;51.34
74680;BME280;63211;48.548;2.704;2024-02-26T08:19:35;98491.28;;;18.76;51.27
74680;BME280;63211;48.548;2.704;2024-02-26T08:22:04;98498.09;;;18.73;51.47
74680;BME280;63211;48.548;2.704;2024-02-26T08:24:30;98500.03;;;18.73;51.64
74680;BME280;63211;48.548;2.704;2024-02-26T08:26:57;98494.56;;;18.73;51.49
74680;BME280;63211;48.548;2.704;2024-02-26T08:29:23;98502.75;;;18.73;51.57
74680;BME280;63211;48.548;2.704;2024-02-26T08:31:50;98506.28;;;18.73;51.12
74680;BME280;63211;48.548;2.704;2024-02-26T08:34:16;98512.56;;;18.74;51.00
74680;BME280;63211;48.548;2.704;2024-02-26T08:36:43;98508.19;;;18.73;51.11
74680;BME280;63211;48.548;2.704;2024-02-26T08:39:11;98512.56;;;18.74;50.93
74680;BME280;63211;48.548;2.704;2024-02-26T08:41:39;98520.72;;;18.74;51.14
74680;BME280;63211;48.548;2.704;2024-02-26T08:44:05;98522.09;;;18.76;51.03
74680;BME280;63211;48.548;2.704;2024-02-26T08:46:32;98525.63;;;18.77;50.75
74680;BME280;63211;48.548;2.704;2024-02-26T08:48:58;98526.72;;;18.76;51.13
74680;BME280;63211;48.548;2.704;2024-02-26T08:51:25;98536.53;;;18.77;50.84
74680;BME280;63211;48.548;2.704;2024-02-26T08:53:52;98535.19;;;18.74;50.85
74680;BME280;63211;48.548;2.704;2024-02-26T08:56:20;98531.91;;;18.72;50.92
74680;BME280;63211;48.548;2.704;2024-02-26T08:58:47;98464.81;;;18.27;51.01
74680;BME280;63211;48.548;2.704;2024-02-26T09:01:16;98542.03;;;18.67;51.14
74680;BME280;63211;48.548;2.704;2024-02-26T09:03:43;98545.59;;;18.67;50.85
74680;BME280;63211;48.548;2.704;2024-02-26T09:06:10;98545.34;;;18.64;50.86
74680;BME280;63211;48.548;2.704;2024-02-26T09:08:37;98548.59;;;18.66;50.60
74680;BME280;63211;48.548;2.704;2024-02-26T09:11:04;98553.22;;;18.65;50.76
74680;BME280;63211;48.548;2.704;2024-02-26T09:13:32;98558.41;;;18.67;50.74
74680;BME280;63211;48.548;2.704;2024-02-26T09:15:59;98558.13;;;18.68;50.58
74680;BME280;63211;48.548;2.704;2024-02-26T09:18:25;98560.56;;;18.70;50.73
74680;BME280;63211;48.548;2.704;2024-02-26T09:20:54;98563.31;;;18.70;50.79
74680;BME280;63211;48.548;2.704;2024-02-26T09:23:20;98572.00;;;18.72;50.36
74680;BME280;63211;48.548;2.704;2024-02-26T09:25:47;98577.16;;;18.73;50.28
74680;BME280;63211;48.548;2.704;2024-02-26T09:28:13;98578.25;;;18.72;50.25
74680;BME280;63211;48.548;2.704;2024-02-26T09:30:43;98572.56;;;18.69;50.39
74680;BME280;63211;48.548;2.704;2024-02-26T09:33:10;98588.34;;;18.72;50.47
74680;BME280;63211;48.548;2.704;2024-02-26T09:35:37;98591.38;;;18.70;50.27
74680;BME280;63211;48.548;2.704;2024-02-26T09:38:04;98591.38;;;18.70;50.31
74680;BME280;63211;48.548;2.704;2024-02-26T09:40:30;98601.16;;;18.71;50.21
74680;BME280;63211;48.548;2.704;2024-02-26T09:43:00;98591.94;;;18.67;50.68
74680;BME280;63211;48.548;2.704;2024-02-26T09:45:28;98605.00;;;18.70;50.79
74680;BME280;63211;48.548;2.704;2024-02-26T09:47:56;98609.63;;;18.70;50.72
74680;BME280;63211;48.548;2.704;2024-02-26T09:50:23;98607.75;;;18.65;50.51
74680;BME280;63211;48.548;2.704;2024-02-26T09:52:51;98605.28;;;18.64;50.84
74680;BME280;63211;48.548;2.704;2024-02-26T09:55:18;98624.91;;;18.66;50.44
74680;BME280;63211;48.548;2.704;2024-02-26T09:57:45;98629.00;;;18.63;50.27
74680;BME280;63211;48.548;2.704;2024-02-26T10:00:15;98624.09;;;18.65;50.35
74680;BME280;63211;48.548;2.704;2024-02-26T10:02:45;98626.00;;;18.65;50.06
74680;BME280;63211;48.548;2.704;2024-02-26T10:05:14;98627.63;;;18.66;50.49
74680;BME280;63211;48.548;2.704;2024-02-26T10:07:44;98630.09;;;18.67;50.05
74680;BME280;63211;48.548;2.704;2024-02-26T10:10:10;98623.00;;;18.61;50.04
74680;BME280;63211;48.548;2.704;2024-02-26T10:12:37;98642.34;;;18.70;50.22
74680;BME280;63211;48.548;2.704;2024-02-26T10:15:04;98647.81;;;18.70;50.20
74680;BME280;63211;48.548;2.704;2024-02-26T10:17:31;98649.72;;;18.69;50.36
74680;BME280;63211;48.548;2.704;2024-02-26T10:20:11;98653.53;;;18.68;50.22
74680;BME280;63211;48.548;2.704;2024-02-26T10:22:39;98656.25;;;18.68;50.23
74680;BME280;63211;48.548;2.704;2024-02-26T10:25:05;98659.25;;;18.67;49.93
74680;BME280;63211;48.548;2.704;2024-02-26T10:27:33;98666.88;;;18.65;50.05
74680;BME280;63211;48.548;2.704;2024-02-26T10:30:02;98667.16;;;18.63;50.08
74680;BME280;63211;48.548;2.704;2024-02-26T10:32:29;98675.59;;;18.67;50.24
74680;BME280;63211;48.548;2.704;2024-02-26T10:34:56;98677.25;;;18.68;50.36
74680;BME280;63211;48.548;2.704;2024-02-26T10:37:23;98681.06;;;18.67;50.31
74680;BME280;63211;48.548;2.704;2024-02-26T10:39:51;98678.34;;;18.67;50.34
74680;BME280;63211;48.548;2.704;2024-02-26T10:42:18;98679.94;;;18.58;50.24
74680;BME280;63211;48.548;2.704;2024-02-26T10:44:45;98693.31;;;18.64;50.35
74680;BME280;63211;48.548;2.704;2024-02-26T10:47:14;98697.97;;;18.64;50.19
74680;BME280;63211;48.548;2.704;2024-02-26T10:49:45;98695.50;;;18.62;50.01
74680;BME280;63211;48.548;2.704;2024-02-26T10:52:13;98699.88;;;18.63;50.04
74680;BME280;63211;48.548;2.704;2024-02-26T10:54:41;98704.22;;;18.64;50.07
74680;BME280;63211;48.548;2.704;2024-02-26T10:57:11;98713.22;;;18.65;50.07
74680;BME280;63211;48.548;2.704;2024-02-26T10:59:39;98665.53;;;18.32;49.91
74680;BME280;63211;48.548;2.704;2024-02-26T11:02:08;98723.84;;;18.66;49.87
74680;BME280;63211;48.548;2.704;2024-02-26T11:04:36;98726.56;;;18.66;50.02
74680;BME280;63211;48.548;2.704;2024-02-26T11:07:04;98726.31;;;18.68;49.90
74680;BME280;63211;48.548;2.704;2024-02-26T11:09:32;98730.13;;;18.67;50.12
74680;BME280;63211;48.548;2.704;2024-02-26T11:11:59;98731.47;;;18.64;50.07
74680;BME280;63211;48.548;2.704;2024-02-26T11:14:29;98735.84;;;18.65;50.07
74680;BME280;63211;48.548;2.704;2024-02-26T11:16:57;98745.66;;;18.61;50.08
74680;BME280;63211;48.548;2.704;2024-02-26T11:19:24;98728.47;;;18.45;49.97
74680;BME280;63211;48.548;2.704;2024-02-26T11:21:51;98751.66;;;18.63;49.93
74680;BME280;63211;48.548;2.704;2024-02-26T11:24:17;98755.19;;;18.64;49.97
74680;BME280;63211;48.548;2.704;2024-02-26T11:26:47;98748.94;;;18.63;50.08
74680;BME280;63211;48.548;2.704;2024-02-26T11:29:16;98765.28;;;18.63;50.17
74680;BME280;63211;48.548;2.704;2024-02-26T11:31:45;98757.38;;;18.62;50.12
74680;BME280;63211;48.548;2.704;2024-02-26T11:34:12;98694.44;;;18.23;50.15
74680;BME280;63211;48.548;2.704;2024-02-26T11:36:39;98757.09;;;18.63;49.92
74680;BME280;63211;48.548;2.704;2024-02-26T11:39:07;98759.56;;;18.65;49.95
74680;BME280;63211;48.548;2.704;2024-02-26T11:41:36;98757.66;;;18.65;49.95
74680;BME280;63211;48.548;2.704;2024-02-26T11:44:03;98767.47;;;18.66;49.85
74680;BME280;63211;48.548;2.704;2024-02-26T11:46:33;98760.66;;;18.64;50.01
74680;BME280;63211;48.548;2.704;2024-02-26T11:49:02;98761.47;;;18.64;49.98
74680;BME280;63211;48.548;2.704;2024-02-26T11:51:33;98762.00;;;18.66;49.77
74680;BME280;63211;48.548;2.704;2024-02-26T11:54:00;98737.47;;;18.46;49.95
74680;BME280;63211;48.548;2.704;2024-02-26T11:56:26;98741.00;;;18.51;50.12
74680;BME280;63211;48.548;2.704;2024-02-26T11:58:59;98763.91;;;18.66;50.03
74680;BME280;63211;48.548;2.704;2024-02-26T12:01:38;98769.66;;;18.64;50.01
74680;BME280;63211;48.548;2.704;2024-02-26T12:04:08;98762.81;;;18.62;50.15
74680;BME280;63211;48.548;2.704;2024-02-26T12:06:46;98762.81;;;18.62;50.06
74680;BME280;63211;48.548;2.704;2024-02-26T12:09:12;98766.06;;;18.59;50.03
74680;BME280;63211;48.548;2.704;2024-02-26T12:11:40;98775.31;;;18.58;49.91
74680;BME280;63211;48.548;2.704;2024-02-26T12:14:09;98720.88;;;18.27;49.87
74680;BME280;63211;48.548;2.704;2024-02-26T12:16:36;98781.91;;;18.62;49.75
74680;BME280;63211;48.548;2.704;2024-02-26T12:19:09;98778.38;;;18.61;49.96
74680;BME280;63211;48.548;2.704;2024-02-26T12:21:37;98777.00;;;18.64;49.87
74680;BME280;63211;48.548;2.704;2024-02-26T12:24:09;98767.97;;;18.53;49.91
74680;BME280;63211;48.548;2.704;2024-02-26T12:26:36;98784.63;;;18.67;49.90
74680;BME280;63211;48.548;2.704;2024-02-26T12:29:03;98793.63;;;18.67;49.86
74680;BME280;63211;48.548;2.704;2024-02-26T12:31:30;98787.91;;;18.64;49.53
74680;BME280;63211;48.548;2.704;2024-02-26T12:33:57;98779.41;;;18.55;49.66
74680;BME280;63211;48.548;2.704;2024-02-26T12:36:26;98794.72;;;18.66;50.05
74680;BME280;63211;48.548;2.704;2024-02-26T12:38:53;98795.81;;;18.65;49.83
74680;BME280;63211;48.548;2.704;2024-02-26T12:41:21;98792.00;;;18.66;50.08
74680;BME280;63211;48.548;2.704;2024-02-26T12:43:48;98803.72;;;18.67;49.80
74680;BME280;63211;48.548;2.704;2024-02-26T12:46:15;98806.16;;;18.63;49.91
74680;BME280;63211;48.548;2.704;2024-02-26T12:48:42;98805.34;;;18.68;49.87
74680;BME280;63211;48.548;2.704;2024-02-26T12:51:10;98806.16;;;18.68;49.84
74680;BME280;63211;48.548;2.704;2024-02-26T12:53:39;98810.00;;;18.67;50.10
74680;BME280;63211;48.548;2.704;2024-02-26T12:56:07;98807.53;;;18.66;49.83
74680;BME280;63211;48.548;2.704;2024-02-26T12:58:36;98814.06;;;18.65;49.93
74680;BME280;63211;48.548;2.704;2024-02-26T13:01:04;98818.69;;;18.64;49.71